createdAt,value
2019-05-09T00:02:28.439Z,96635.84
2019-05-09T00:04:59.299Z,96638.45
2019-05-09T00:07:33.589Z,96634.86
2019-05-09T00:10:05.202Z,96634.94
2019-05-09T00:12:43.728Z,96633.55
2019-05-09T00:15:15.834Z,96629.92
2019-05-09T00:17:46.557Z,96628.62
2019-05-09T00:20:40.797Z,96636.02
2019-05-09T00:23:13.536Z,96633.11
2019-05-09T00:25:44.019Z,96630.48
2019-05-09T00:28:14.867Z,96630.78
2019-05-09T00:31:03.620Z,96626.58
2019-05-09T00:33:35.573Z,96624.66
2019-05-09T00:36:06.244Z,96623.14
2019-05-09T00:38:46.345Z,96622.83
2019-05-09T00:41:17.222Z,96623.11
2019-05-09T00:43:54.394Z,96619.34
2019-05-09T00:46:53.531Z,96626.13
2019-05-09T00:49:27.622Z,96612.91
2019-05-09T00:52:03.462Z,96613.06
2019-05-09T00:54:33.894Z,96615.21
2019-05-09T00:57:05.887Z,96611.98
2019-05-09T00:59:37.844Z,96610.58
2019-05-09T01:02:13.181Z,96603.64
2019-05-09T01:04:44.119Z,96596.41
2019-05-09T01:07:20.692Z,96599.39
2019-05-09T01:09:54.326Z,96595.71
2019-05-09T01:12:26.276Z,96589.34
2019-05-09T01:14:58.151Z,96592.56
2019-05-09T01:17:35.081Z,96602.33
2019-05-09T01:20:11.637Z,96594.09
2019-05-09T01:22:43.625Z,96595.77
2019-05-09T01:25:14.709Z,96600.72
2019-05-09T01:27:45.408Z,96596.68
2019-05-09T01:30:17.678Z,96596.45
2019-05-09T01:33:10.649Z,96598.63
2019-05-09T01:35:43.342Z,96593.00
2019-05-09T01:38:16.632Z,96589.97
2019-05-09T01:40:49.369Z,96592.38
2019-05-09T01:43:20.999Z,96590.64
2019-05-09T01:45:54.084Z,96589.95
2019-05-09T01:48:24.984Z,96591.32
2019-05-09T01:50:57.572Z,96587.41
2019-05-09T01:53:33.467Z,96586.48
2019-05-09T01:56:04.400Z,96584.75
2019-05-09T01:58:43.972Z,96583.32
2019-05-09T02:01:17.518Z,96582.02
2019-05-09T02:03:49.266Z,96584.83
2019-05-09T02:06:21.297Z,96575.20
2019-05-09T02:08:54.569Z,96576.38
2019-05-09T02:11:39.297Z,96566.52
2019-05-09T02:14:01.301Z,96572.66
2019-05-09T02:16:54.489Z,96566.25
2019-05-09T02:19:33.200Z,96572.03
2019-05-09T02:22:23.908Z,96570.00
2019-05-09T02:24:57.164Z,96570.23
2019-05-09T02:27:29.819Z,96571.60
2019-05-09T02:30:05.440Z,96575.38
2019-05-09T02:32:34.818Z,96565.45
2019-05-09T02:35:09.008Z,96560.31
2019-05-09T02:37:39.314Z,96555.09
2019-05-09T02:40:18.672Z,96559.61
2019-05-09T02:42:48.730Z,96554.96
2019-05-09T02:45:19.527Z,96554.16
2019-05-09T02:47:50.414Z,96551.34
2019-05-09T02:50:22.061Z,96540.41
2019-05-09T02:52:53.962Z,96542.95
2019-05-09T02:55:28.849Z,96542.42
2019-05-09T02:58:03.757Z,96540.72
2019-05-09T03:00:44.719Z,96533.66
2019-05-09T03:03:41.420Z,96535.41
2019-05-09T03:06:12.278Z,96527.02
2019-05-09T03:08:49.099Z,96530.32
2019-05-09T03:11:19.806Z,96525.41
2019-05-09T03:13:50.756Z,96523.40
2019-05-09T03:16:22.714Z,96518.19
2019-05-09T03:18:54.610Z,96530.48
2019-05-09T03:21:34.045Z,96525.77
2019-05-09T03:24:04.761Z,96526.08
2019-05-09T03:26:44.246Z,96523.23
2019-05-09T03:29:51.148Z,96522.16
2019-05-09T03:32:23.972Z,96514.91
2019-05-09T03:34:57.940Z,96510.49
2019-05-09T03:37:29.140Z,96508.19
2019-05-09T03:40:01.677Z,96502.03
2019-05-09T03:42:42.573Z,96518.18
2019-05-09T03:45:08.290Z,96512.66
2019-05-09T03:47:53.768Z,96507.02
2019-05-09T03:50:28.037Z,96507.02
2019-05-09T03:53:02.496Z,96502.09
2019-05-09T03:55:38.334Z,96493.27
2019-05-09T03:58:18.541Z,96493.70
2019-05-09T04:00:50.843Z,96492.91
2019-05-09T04:03:21.494Z,96489.49
2019-05-09T04:06:02.865Z,96490.86
2019-05-09T04:08:31.597Z,96480.73
2019-05-09T04:11:09.637Z,96484.70
2019-05-09T04:13:48.263Z,96488.91
2019-05-09T04:16:20.274Z,96488.41
2019-05-09T04:18:52.125Z,96481.59
2019-05-09T04:21:22.712Z,96486.38
2019-05-09T04:23:55.294Z,96485.87
2019-05-09T04:26:38.343Z,96489.78
2019-05-09T04:29:08.980Z,96486.97
2019-05-09T04:31:41.553Z,96487.84
2019-05-09T04:34:15.040Z,96488.84
2019-05-09T04:36:50.069Z,96484.72
2019-05-09T04:39:23.727Z,96488.91
2019-05-09T04:41:54.950Z,96486.03
2019-05-09T04:44:33.507Z,96481.67
2019-05-09T04:47:04.327Z,96482.38
2019-05-09T04:49:41.031Z,96484.28
2019-05-09T04:52:08.650Z,96489.00
2019-05-09T04:54:39.225Z,96487.45
2019-05-09T04:57:09.842Z,96484.84
2019-05-09T04:59:40.397Z,96487.52
2019-05-09T05:02:37.913Z,96482.84
2019-05-09T05:05:07.980Z,96489.36
2019-05-09T05:07:38.616Z,96487.45
2019-05-09T05:10:09.756Z,96489.27
2019-05-09T05:12:40.387Z,96484.34
2019-05-09T05:15:11.715Z,96489.27
2019-05-09T05:17:42.328Z,96486.45
2019-05-09T05:20:18.563Z,96483.84
2019-05-09T05:23:00.715Z,96481.80
2019-05-09T05:25:31.261Z,96484.70
2019-05-09T05:28:01.861Z,96488.47
2019-05-09T05:30:32.438Z,96489.63
2019-05-09T05:33:08.113Z,96489.98
2019-05-09T05:35:44.564Z,96490.59
2019-05-09T05:38:17.615Z,96485.73
2019-05-09T05:40:49.911Z,96485.99
2019-05-09T05:43:20.973Z,96491.30
2019-05-09T05:46:07.560Z,96489.47
2019-05-09T05:48:38.953Z,96484.92
2019-05-09T05:51:09.518Z,96483.69
2019-05-09T05:53:41.499Z,96487.89
2019-05-09T05:56:12.106Z,96484.25
2019-05-09T05:58:42.696Z,96489.56
2019-05-09T06:01:13.343Z,96495.48
2019-05-09T06:03:43.912Z,96491.45
2019-05-09T06:06:20.498Z,96493.11
2019-05-09T06:08:51.143Z,96489.05
2019-05-09T06:11:21.705Z,96487.01
2019-05-09T06:13:56.956Z,96475.62
2019-05-09T06:16:24.663Z,96466.55
2019-05-09T06:18:58.564Z,96458.27
2019-05-09T06:21:28.642Z,96442.76
2019-05-09T06:23:59.213Z,96442.02
2019-05-09T06:26:29.822Z,96436.29
2019-05-09T06:29:00.417Z,96435.78
2019-05-09T06:31:30.964Z,96436.80
2019-05-09T06:34:01.499Z,96440.27
2019-05-09T06:36:32.127Z,96446.58
2019-05-09T06:39:02.748Z,96439.55
2019-05-09T06:41:33.352Z,96437.95
2019-05-09T06:44:28.098Z,96439.55
2019-05-09T06:47:04.708Z,96441.16
2019-05-09T06:49:38.664Z,96440.27
2019-05-09T06:52:09.287Z,96447.33
2019-05-09T06:54:41.677Z,96438.45
2019-05-09T06:57:12.190Z,96447.38
2019-05-09T06:59:42.738Z,96445.33
2019-05-09T07:02:32.246Z,96440.41
2019-05-09T07:05:11.392Z,96431.06
2019-05-09T07:07:53.055Z,96430.67
2019-05-09T07:10:28.377Z,96415.86
2019-05-09T07:13:00.707Z,96414.84
2019-05-09T07:15:31.255Z,96410.64
2019-05-09T07:18:01.822Z,96406.42
2019-05-09T07:20:32.353Z,96403.81
2019-05-09T07:23:02.933Z,96399.47
2019-05-09T07:25:49.915Z,96402.09
2019-05-09T07:28:21.119Z,96396.47
2019-05-09T07:31:17.768Z,96394.41
2019-05-09T07:33:58.919Z,96394.79
2019-05-09T07:36:30.035Z,96390.88
2019-05-09T07:39:02.817Z,96391.75
2019-05-09T07:41:33.790Z,96388.07
2019-05-09T07:44:04.533Z,96381.30
2019-05-09T07:46:38.430Z,96382.16
2019-05-09T07:49:12.421Z,96379.97
2019-05-09T07:51:47.734Z,96388.09
2019-05-09T07:54:24.749Z,96378.05
2019-05-09T07:56:50.402Z,96381.23
2019-05-09T07:59:21.010Z,96378.24
2019-05-09T08:01:51.636Z,96371.77
2019-05-09T08:04:22.203Z,96377.38
2019-05-09T08:06:52.871Z,96371.44
2019-05-09T08:09:23.541Z,96374.90
2019-05-09T08:11:54.174Z,96367.62
2019-05-09T08:14:24.828Z,96367.96
2019-05-09T08:16:57.845Z,96365.91
2019-05-09T08:19:27.671Z,96363.48
2019-05-09T08:21:58.290Z,96360.13
2019-05-09T08:24:28.981Z,96359.66
2019-05-09T08:26:59.588Z,96357.10
2019-05-09T08:29:30.206Z,96358.19
2019-05-09T08:32:00.850Z,96355.41
2019-05-09T08:34:31.394Z,96354.95
2019-05-09T08:37:02.027Z,96355.70
2019-05-09T08:39:32.659Z,96357.40
2019-05-09T08:42:03.273Z,96355.08
2019-05-09T08:44:33.865Z,96348.25
2019-05-09T08:47:04.454Z,96352.00
2019-05-09T08:49:49.403Z,96358.25
2019-05-09T08:52:19.956Z,96364.22
2019-05-09T08:54:57.852Z,96356.98
2019-05-09T08:57:29.059Z,96353.65
2019-05-09T08:59:59.586Z,96352.14
2019-05-09T09:02:30.197Z,96344.08
2019-05-09T09:05:04.736Z,96336.53
2019-05-09T09:07:37.744Z,96339.15
2019-05-09T09:10:08.934Z,96336.75
2019-05-09T09:12:39.563Z,96327.38
2019-05-09T09:15:10.781Z,96329.24
2019-05-09T09:17:43.025Z,96327.64
2019-05-09T09:20:13.597Z,96321.52
2019-05-09T09:22:48.029Z,96322.36
2019-05-09T09:25:18.993Z,96324.39
2019-05-09T09:27:51.123Z,96322.98
2019-05-09T09:30:25.187Z,96320.13
2019-05-09T09:32:54.730Z,96330.11
2019-05-09T09:35:27.710Z,96325.22
2019-05-09T09:37:58.214Z,96331.03
2019-05-09T09:40:29.062Z,96321.95
2019-05-09T09:43:01.332Z,96311.74
2019-05-09T09:45:31.987Z,96315.93
2019-05-09T09:48:02.639Z,96311.74
2019-05-09T09:50:33.220Z,96305.76
2019-05-09T09:53:03.800Z,96303.47
2019-05-09T09:55:34.467Z,96302.27
2019-05-09T09:58:05.204Z,96303.91
2019-05-09T10:00:50.260Z,96300.72
2019-05-09T10:03:20.807Z,96295.99
2019-05-09T10:05:51.355Z,96292.98
2019-05-09T10:08:22.255Z,96288.25
2019-05-09T10:10:53.033Z,96284.88
2019-05-09T10:13:23.700Z,96272.88
2019-05-09T10:16:28.743Z,96269.00
2019-05-09T10:19:02.741Z,96271.42
2019-05-09T10:21:38.247Z,96266.99
2019-05-09T10:24:08.910Z,96265.21
2019-05-09T10:26:46.538Z,96260.77
2019-05-09T10:29:17.748Z,96262.62
2019-05-09T10:31:48.852Z,96259.83
2019-05-09T10:34:19.430Z,96260.63
2019-05-09T10:36:49.994Z,96254.48
2019-05-09T10:39:20.633Z,96250.82
2019-05-09T10:41:51.380Z,96259.94
2019-05-09T10:44:29.653Z,96256.75
2019-05-09T10:47:11.467Z,96257.00
2019-05-09T10:49:42.027Z,96250.17
2019-05-09T10:52:14.547Z,96254.70
2019-05-09T10:54:45.656Z,96251.05
2019-05-09T10:57:16.254Z,96257.33
2019-05-09T10:59:48.310Z,96253.84
2019-05-09T11:02:19.105Z,96247.08
2019-05-09T11:04:49.725Z,96247.41
2019-05-09T11:07:20.335Z,96245.81
2019-05-09T11:09:51.019Z,96250.24
2019-05-09T11:12:21.646Z,96248.20
2019-05-09T11:14:52.283Z,96245.63
2019-05-09T11:17:22.910Z,96249.83
2019-05-09T11:19:53.526Z,96245.66
2019-05-09T11:22:24.096Z,96244.34
2019-05-09T11:24:54.691Z,96245.98
2019-05-09T11:27:25.320Z,96241.55
2019-05-09T11:29:58.019Z,96236.31
2019-05-09T11:32:29.127Z,96238.73
2019-05-09T11:34:59.701Z,96242.19
2019-05-09T11:37:30.297Z,96234.05
2019-05-09T11:40:00.924Z,96235.09
2019-05-09T11:42:33.403Z,96239.50
2019-05-09T11:45:03.898Z,96244.80
2019-05-09T11:47:42.564Z,96243.59
2019-05-09T11:50:08.785Z,96246.27
2019-05-09T11:52:39.999Z,96250.52
2019-05-09T11:55:28.453Z,96252.34
2019-05-09T11:57:43.889Z,96255.88
2019-05-09T12:00:17.796Z,96261.79
2019-05-09T12:02:49.883Z,96258.72
2019-05-09T12:05:20.069Z,96260.92
2019-05-09T12:07:50.726Z,96262.35
2019-05-09T12:10:21.267Z,96260.88
2019-05-09T12:12:51.877Z,96263.07
2019-05-09T12:15:22.454Z,96267.48
2019-05-09T12:17:58.360Z,96267.99
2019-05-09T12:20:27.576Z,96271.81
2019-05-09T12:22:58.411Z,96275.12
2019-05-09T12:25:29.264Z,96276.91
2019-05-09T12:27:59.909Z,96284.48
2019-05-09T12:30:30.495Z,96287.86
2019-05-09T12:33:01.118Z,96282.73
2019-05-09T12:35:31.733Z,96285.98
2019-05-09T12:38:02.409Z,96291.06
2019-05-09T12:40:32.969Z,96296.30
2019-05-09T12:43:03.603Z,96302.35
2019-05-09T12:45:34.167Z,96313.72
2019-05-09T12:48:10.244Z,96321.13
2019-05-09T12:50:38.735Z,96326.22
2019-05-09T12:53:09.476Z,96333.26
2019-05-09T12:55:40.043Z,96340.55
2019-05-09T12:58:27.863Z,96352.09
2019-05-09T13:01:00.839Z,96355.86
2019-05-09T13:03:31.465Z,96360.92
2019-05-09T13:06:03.315Z,96367.83
2019-05-09T13:08:33.932Z,96374.44
2019-05-09T13:11:04.503Z,96384.19
2019-05-09T13:13:35.100Z,96389.94
2019-05-09T13:16:22.458Z,96396.96
2019-05-09T13:19:04.803Z,96407.77
2019-05-09T13:21:38.900Z,96414.97
2019-05-09T13:24:09.792Z,96414.92
2019-05-09T13:26:41.539Z,96415.19
2019-05-09T13:29:14.588Z,96428.81
2019-05-09T13:31:45.156Z,96425.28
2019-05-09T13:34:18.570Z,96441.52
2019-05-09T13:36:48.922Z,96434.00
2019-05-09T13:39:19.990Z,96440.66
2019-05-09T13:41:50.592Z,96444.81
2019-05-09T13:44:21.199Z,96442.39
2019-05-09T13:46:51.898Z,96446.02
2019-05-09T13:49:22.551Z,96448.84
2019-05-09T13:52:00.501Z,96448.66
2019-05-09T13:54:25.471Z,96455.08
2019-05-09T13:57:00.839Z,96466.63
2019-05-09T13:59:30.145Z,96468.84
2019-05-09T14:02:00.840Z,96466.50
2019-05-09T14:04:31.484Z,96467.03
2019-05-09T14:07:02.009Z,96467.24
2019-05-09T14:09:32.668Z,96473.30
2019-05-09T14:12:03.262Z,96486.42
2019-05-09T14:14:33.860Z,96482.72
2019-05-09T14:17:04.441Z,96486.84
2019-05-09T14:19:42.461Z,96497.94
2019-05-09T14:22:08.262Z,96497.07
2019-05-09T14:24:39.380Z,96503.34
2019-05-09T14:27:11.066Z,96506.04
2019-05-09T14:29:41.817Z,96511.30
2019-05-09T14:32:13.746Z,96512.54
2019-05-09T14:34:48.000Z,96524.66
2019-05-09T14:37:19.326Z,96531.24
2019-05-09T14:39:59.536Z,96532.06
2019-05-09T14:42:29.872Z,96538.90
2019-05-09T14:45:01.714Z,96539.23
2019-05-09T14:47:32.531Z,96538.08
2019-05-09T14:50:17.912Z,96542.27
2019-05-09T14:52:49.253Z,96547.35
2019-05-09T14:55:21.112Z,96548.95
2019-05-09T14:57:51.832Z,96556.57
2019-05-09T15:00:22.676Z,96564.03
2019-05-09T15:02:53.293Z,96557.98
2019-05-09T15:05:24.010Z,96565.92
2019-05-09T15:07:58.876Z,96572.73
2019-05-09T15:10:28.512Z,96576.64
2019-05-09T15:13:00.558Z,96590.65
2019-05-09T15:15:33.596Z,96587.42
2019-05-09T15:18:07.967Z,96590.55
2019-05-09T15:20:38.133Z,96598.50
2019-05-09T15:23:10.237Z,96601.35
2019-05-09T15:25:40.959Z,96608.42
2019-05-09T15:28:19.485Z,96612.86
2019-05-09T15:30:59.341Z,96626.77
2019-05-09T15:33:30.438Z,96635.02
2019-05-09T15:36:09.176Z,96642.34
2019-05-09T15:38:44.221Z,96653.42
2019-05-09T15:41:18.264Z,96664.63
2019-05-09T15:43:57.952Z,96671.89
2019-05-09T15:46:34.402Z,96677.42
2019-05-09T15:49:07.693Z,96680.34
2019-05-09T15:51:49.801Z,96691.81
2019-05-09T15:54:24.669Z,96691.76
2019-05-09T15:56:59.803Z,96687.18
2019-05-09T15:59:30.593Z,96697.53
2019-05-09T16:02:09.099Z,96691.70
2019-05-09T16:04:41.681Z,96701.14
2019-05-09T16:07:13.423Z,96697.72
2019-05-09T16:09:44.289Z,96703.96
2019-05-09T16:12:14.861Z,96713.70
2019-05-09T16:14:45.707Z,96712.00
2019-05-09T16:17:19.057Z,96711.41
2019-05-09T16:19:50.010Z,96717.22
2019-05-09T16:22:21.974Z,96713.61
2019-05-09T16:24:52.702Z,96713.91
2019-05-09T16:27:24.608Z,96712.02
2019-05-09T16:29:57.771Z,96712.96
2019-05-09T16:32:31.856Z,96722.15
2019-05-09T16:35:03.860Z,96724.59
2019-05-09T16:37:52.685Z,96727.83
2019-05-09T16:40:08.451Z,96722.78
2019-05-09T16:42:39.319Z,96733.27
2019-05-09T16:45:13.695Z,96726.06
2019-05-09T16:47:48.240Z,96727.53
2019-05-09T16:50:25.902Z,96728.78
2019-05-09T16:53:02.824Z,96729.30
2019-05-09T16:55:38.099Z,96729.59
2019-05-09T16:58:09.055Z,96729.65
2019-05-09T17:00:51.721Z,96735.77
2019-05-09T17:03:28.224Z,96738.30
2019-05-09T17:05:58.247Z,96745.31
2019-05-09T17:08:31.262Z,96756.66
2019-05-09T17:11:08.202Z,96754.34
2019-05-09T17:13:40.132Z,96759.19
2019-05-09T17:16:10.912Z,96764.48
2019-05-09T17:18:42.874Z,96764.40
2019-05-09T17:21:33.207Z,96765.45
2019-05-09T17:24:08.298Z,96760.07
2019-05-09T17:26:40.461Z,96761.28
2019-05-09T17:29:12.416Z,96768.70
2019-05-09T17:31:50.342Z,96766.77
2019-05-09T17:34:21.230Z,96768.26
2019-05-09T17:36:53.244Z,96775.46
2019-05-09T17:39:25.130Z,96782.23
2019-05-09T17:41:58.078Z,96790.09
2019-05-09T17:44:28.694Z,96793.09
2019-05-09T17:47:00.727Z,96794.05
2019-05-09T17:49:32.702Z,96797.36
2019-05-09T17:52:04.691Z,96808.89
2019-05-09T17:54:35.269Z,96818.48
2019-05-09T17:57:07.956Z,96826.77
2019-05-09T17:59:39.404Z,96818.75
2019-05-09T18:02:11.562Z,96832.30
2019-05-09T18:04:44.498Z,96824.70
2019-05-09T18:07:20.465Z,96829.59
2019-05-09T18:09:53.304Z,96839.27
2019-05-09T18:12:27.586Z,96841.60
2019-05-09T18:15:03.768Z,96849.66
2019-05-09T18:17:38.312Z,96854.84
2019-05-09T18:20:13.633Z,96859.22
2019-05-09T18:22:50.280Z,96864.39
2019-05-09T18:25:22.265Z,96859.10
2019-05-09T18:27:57.347Z,96872.37
2019-05-09T18:30:28.096Z,96877.03
2019-05-09T18:33:13.187Z,96881.44
2019-05-09T18:35:47.729Z,96881.99
2019-05-09T18:38:31.285Z,96891.27
2019-05-09T18:41:14.191Z,96901.91
2019-05-09T18:43:44.879Z,96912.67
2019-05-09T18:46:17.602Z,96923.55
2019-05-09T18:48:55.413Z,96929.09
2019-05-09T18:51:28.734Z,96926.69
2019-05-09T18:54:09.525Z,96931.03
2019-05-09T18:56:43.938Z,96934.84
2019-05-09T18:59:16.164Z,96938.91
2019-05-09T19:01:50.036Z,96940.33
2019-05-09T19:04:23.925Z,96941.30
2019-05-09T19:06:55.562Z,96950.14
2019-05-09T19:09:27.593Z,96959.14
2019-05-09T19:11:58.251Z,96961.92
2019-05-09T19:14:30.183Z,96961.02
2019-05-09T19:17:19.941Z,96965.56
2019-05-09T19:20:13.946Z,96969.41
2019-05-09T19:22:44.673Z,96973.84
2019-05-09T19:25:16.671Z,96972.23
2019-05-09T19:27:47.325Z,96980.55
2019-05-09T19:30:21.725Z,96987.99
2019-05-09T19:32:52.361Z,96988.27
2019-05-09T19:35:23.139Z,96993.23
2019-05-09T19:37:53.973Z,96998.33
2019-05-09T19:40:30.779Z,97003.57
2019-05-09T19:43:06.941Z,97007.66
2019-05-09T19:45:44.552Z,97010.59
2019-05-09T19:48:22.643Z,97011.16
2019-05-09T19:50:56.450Z,97011.41
2019-05-09T19:53:27.414Z,97017.66
2019-05-09T19:55:58.130Z,97022.09
2019-05-09T19:58:30.365Z,97020.27
2019-05-09T20:01:01.277Z,97027.89
2019-05-09T20:03:34.867Z,97034.32
2019-05-09T20:06:06.789Z,97033.02
2019-05-09T20:08:41.668Z,97032.51
2019-05-09T20:11:38.612Z,97041.17
2019-05-09T20:14:32.784Z,97043.70
2019-05-09T20:17:03.457Z,97042.27
2019-05-09T20:19:34.187Z,97042.47
2019-05-09T20:22:10.195Z,97047.14
2019-05-09T20:24:52.457Z,97051.64
2019-05-09T20:27:25.244Z,97053.69
2019-05-09T20:29:55.961Z,97064.81
2019-05-09T20:32:26.582Z,97073.03
2019-05-09T20:34:58.253Z,97072.09
2019-05-09T20:37:33.688Z,97080.59
2019-05-09T20:40:04.600Z,97086.30
2019-05-09T20:42:35.571Z,97100.77
2019-05-09T20:45:08.424Z,97095.16
2019-05-09T20:47:45.217Z,97094.72
2019-05-09T20:50:16.322Z,97100.16
2019-05-09T20:52:47.523Z,97099.66
2019-05-09T20:55:20.821Z,97106.72
2019-05-09T20:57:52.658Z,97110.94
2019-05-09T21:00:23.800Z,97116.69
2019-05-09T21:02:55.468Z,97119.55
2019-05-09T21:05:26.438Z,97117.73
2019-05-09T21:07:59.323Z,97125.72
2019-05-09T21:10:33.230Z,97117.50
2019-05-09T21:13:04.093Z,97124.31
2019-05-09T21:15:37.266Z,97124.48
2019-05-09T21:18:11.040Z,97121.50
2019-05-09T21:20:43.237Z,97128.59
2019-05-09T21:23:24.692Z,97129.77
2019-05-09T21:25:50.983Z,97137.08
2019-05-09T21:28:21.994Z,97138.02
2019-05-09T21:30:53.887Z,97140.06
2019-05-09T21:33:24.707Z,97137.08
2019-05-09T21:35:56.477Z,97145.57
2019-05-09T21:38:32.565Z,97147.55
2019-05-09T21:41:03.207Z,97149.59
2019-05-09T21:43:35.662Z,97148.63
2019-05-09T21:46:06.298Z,97152.48
2019-05-09T21:48:38.652Z,97155.60
2019-05-09T21:51:17.651Z,97157.11
2019-05-09T21:53:49.625Z,97161.83
2019-05-09T21:56:20.425Z,97164.88
2019-05-09T21:58:54.357Z,97167.70
2019-05-09T22:01:26.335Z,97167.42
2019-05-09T22:03:58.312Z,97165.87
2019-05-09T22:06:29.011Z,97171.22
2019-05-09T22:08:59.785Z,97168.66
2019-05-09T22:11:31.691Z,97171.20
2019-05-09T22:14:05.892Z,97179.23
2019-05-09T22:16:40.560Z,97176.04
2019-05-09T22:19:16.657Z,97179.50
2019-05-09T22:21:47.281Z,97179.23
2019-05-09T22:24:18.124Z,97183.36
2019-05-09T22:26:48.808Z,97185.85
2019-05-09T22:29:23.708Z,97185.69
2019-05-09T22:31:56.467Z,97189.03
2019-05-09T22:34:27.021Z,97194.79
2019-05-09T22:37:00.772Z,97192.76
2019-05-09T22:39:32.723Z,97193.20
2019-05-09T22:42:07.543Z,97198.04
2019-05-09T22:44:51.658Z,97200.27
2019-05-09T22:47:23.347Z,97205.98
2019-05-09T22:49:53.959Z,97214.24
2019-05-09T22:52:41.152Z,97214.97
2019-05-09T22:55:12.220Z,97210.44
2019-05-09T22:57:47.275Z,97215.67
2019-05-09T23:00:18.707Z,97226.14
2019-05-09T23:02:49.483Z,97227.34
2019-05-09T23:05:20.305Z,97229.16
2019-05-09T23:07:57.934Z,97232.96
2019-05-09T23:10:29.890Z,97232.47
2019-05-09T23:13:00.561Z,97231.58
2019-05-09T23:15:40.296Z,97228.74
2019-05-09T23:18:11.937Z,97229.06
2019-05-09T23:20:50.845Z,97234.70
2019-05-09T23:23:37.698Z,97235.41
2019-05-09T23:26:20.152Z,97234.38
2019-05-09T23:28:50.881Z,97232.08
2019-05-09T23:31:40.215Z,97235.19
2019-05-09T23:34:10.834Z,97233.08
2019-05-09T23:36:42.769Z,97231.48
2019-05-09T23:39:19.749Z,97232.08
2019-05-09T23:41:50.391Z,97233.97
2019-05-09T23:44:21.128Z,97234.37
2019-05-09T23:46:53.138Z,97233.68
2019-05-09T23:49:25.477Z,97239.98
2019-05-09T23:51:56.216Z,97238.41
2019-05-09T23:54:47.573Z,97246.65
2019-05-09T23:57:39.193Z,97245.93
